createdAt,value
2018-11-02T00:01:31.214Z,36.60
2018-11-02T00:03:58.909Z,37.83
2018-11-02T00:06:26.658Z,37.40
2018-11-02T00:08:54.818Z,35.53
2018-11-02T00:11:22.580Z,36.10
2018-11-02T00:13:51.613Z,35.43
2018-11-02T00:16:19.951Z,33.20
2018-11-02T00:18:51.292Z,31.93
2018-11-02T00:21:19.212Z,32.40
2018-11-02T00:23:47.225Z,30.23
2018-11-02T00:26:14.918Z,32.47
2018-11-02T00:28:42.682Z,30.77
2018-11-02T00:31:10.409Z,28.07
2018-11-02T00:33:38.067Z,28.37
2018-11-02T00:36:05.868Z,26.67
2018-11-02T00:38:33.705Z,27.60
2018-11-02T00:41:02.192Z,25.43
2018-11-02T00:43:29.871Z,23.23
2018-11-02T00:45:57.660Z,24.93
2018-11-02T00:48:25.494Z,25.57
2018-11-02T00:50:53.178Z,23.53
2018-11-02T00:53:21.166Z,24.40
2018-11-02T00:55:49.096Z,25.60
2018-11-02T00:58:17.007Z,24.67
2018-11-02T01:00:44.756Z,26.83
2018-11-02T01:03:12.418Z,27.43
2018-11-02T01:05:40.205Z,27.03
2018-11-02T01:08:08.037Z,26.40
2018-11-02T01:10:35.859Z,25.83
2018-11-02T01:13:03.706Z,25.17
2018-11-02T01:15:31.952Z,25.03
2018-11-02T01:17:59.834Z,26.33
2018-11-02T01:20:27.943Z,25.40
2018-11-02T01:22:56.514Z,24.47
2018-11-02T01:25:24.173Z,27.10
2018-11-02T01:27:51.787Z,25.33
2018-11-02T01:30:19.724Z,25.33
2018-11-02T01:32:47.290Z,23.60
2018-11-02T01:35:15.197Z,24.30
2018-11-02T01:37:42.973Z,23.43
2018-11-02T01:40:10.802Z,22.43
2018-11-02T01:42:38.602Z,22.07
2018-11-02T01:45:06.348Z,22.07
2018-11-02T01:47:33.998Z,21.37
2018-11-02T01:50:01.988Z,20.83
2018-11-02T01:52:30.599Z,20.00
2018-11-02T01:54:58.269Z,19.20
2018-11-02T01:57:25.953Z,20.03
2018-11-02T01:59:54.921Z,19.37
2018-11-02T02:02:22.841Z,18.13
2018-11-02T02:04:50.488Z,17.60
2018-11-02T02:07:18.104Z,16.27
2018-11-02T02:09:46.484Z,17.00
2018-11-02T02:12:14.361Z,16.47
2018-11-02T02:14:42.222Z,15.30
2018-11-02T02:17:09.871Z,14.57
2018-11-02T02:19:37.687Z,15.00
2018-11-02T02:22:05.693Z,13.63
2018-11-02T02:24:33.689Z,13.53
2018-11-02T02:27:01.468Z,12.10
2018-11-02T02:29:29.280Z,12.93
2018-11-02T02:31:57.256Z,12.17
2018-11-02T02:34:24.963Z,11.80
2018-11-02T02:36:52.696Z,11.83
2018-11-02T02:39:20.302Z,11.53
2018-11-02T02:41:47.958Z,11.23
2018-11-02T02:44:15.753Z,11.43
2018-11-02T02:46:43.546Z,10.73
2018-11-02T02:49:11.137Z,10.57
2018-11-02T02:51:38.993Z,10.07
2018-11-02T02:54:09.918Z,10.70
2018-11-02T02:56:37.660Z,10.60
2018-11-02T02:59:05.639Z,10.47
2018-11-02T03:01:33.451Z,9.73
2018-11-02T03:04:01.237Z,9.83
2018-11-02T03:06:29.018Z,9.73
2018-11-02T03:08:57.479Z,10.73
2018-11-02T03:11:25.462Z,9.53
2018-11-02T03:13:53.377Z,10.10
2018-11-02T03:16:22.299Z,10.17
2018-11-02T03:18:50.138Z,10.30
2018-11-02T03:21:17.673Z,10.27
2018-11-02T03:23:45.395Z,10.50
2018-11-02T03:26:13.877Z,10.80
2018-11-02T03:28:41.939Z,10.53
2018-11-02T03:31:10.238Z,11.53
2018-11-02T03:33:38.231Z,10.50
2018-11-02T03:36:06.091Z,10.97
2018-11-02T03:38:33.880Z,10.47
2018-11-02T03:41:02.359Z,10.40
2018-11-02T03:43:30.753Z,10.70
2018-11-02T03:45:58.902Z,11.13
2018-11-02T03:48:26.865Z,11.33
2018-11-02T03:50:55.233Z,11.37
2018-11-02T03:53:23.587Z,10.97
2018-11-02T03:55:51.405Z,12.57
2018-11-02T03:58:19.585Z,10.87
2018-11-02T04:00:47.868Z,11.83
2018-11-02T04:03:16.353Z,12.10
2018-11-02T04:05:44.172Z,12.10
2018-11-02T04:08:12.124Z,12.00
2018-11-02T04:10:40.427Z,12.07
2018-11-02T04:13:08.407Z,12.33
2018-11-02T04:15:36.290Z,12.80
2018-11-02T04:18:04.709Z,12.60
2018-11-02T04:20:32.386Z,12.00
2018-11-02T04:23:00.103Z,12.90
2018-11-02T04:25:27.995Z,12.47
2018-11-02T04:27:55.770Z,11.73
2018-11-02T04:30:23.552Z,13.07
2018-11-02T04:32:51.503Z,12.13
2018-11-02T04:35:19.264Z,12.03
2018-11-02T04:37:46.774Z,10.53
2018-11-02T04:40:14.447Z,12.13
2018-11-02T04:42:42.091Z,13.00
2018-11-02T04:45:09.676Z,13.37
2018-11-02T04:47:37.764Z,12.60
2018-11-02T04:50:06.289Z,12.83
2018-11-02T04:52:34.047Z,12.43
2018-11-02T04:55:01.841Z,13.27
2018-11-02T04:57:29.831Z,12.73
2018-11-02T04:59:57.986Z,13.20
2018-11-02T05:02:25.857Z,12.83
2018-11-02T05:04:53.651Z,13.50
2018-11-02T05:07:21.550Z,13.77
2018-11-02T05:09:49.971Z,14.50
2018-11-02T05:12:17.856Z,13.37
2018-11-02T05:14:46.621Z,13.47
2018-11-02T05:17:14.722Z,13.77
2018-11-02T05:19:42.925Z,14.73
2018-11-02T05:22:11.775Z,13.97
2018-11-02T05:24:39.620Z,14.73
2018-11-02T05:30:00.555Z,13.57
2018-11-02T05:32:28.396Z,13.87
2018-11-02T05:34:56.266Z,14.73
2018-11-02T05:38:33.445Z,14.30
2018-11-02T05:41:01.214Z,14.37
2018-11-02T05:43:30.082Z,14.80
2018-11-02T05:45:58.075Z,15.50
2018-11-02T05:48:28.652Z,14.73
2018-11-02T05:50:56.622Z,13.83
2018-11-02T05:53:24.506Z,14.90
2018-11-02T05:55:52.467Z,13.67
2018-11-02T05:58:20.589Z,15.00
2018-11-02T06:00:48.831Z,14.70
2018-11-02T06:03:17.338Z,14.77
2018-11-02T06:05:45.483Z,13.47
2018-11-02T06:08:13.916Z,14.40
2018-11-02T06:13:43.294Z,13.77
2018-11-02T06:16:11.388Z,13.80
2018-11-02T06:18:39.342Z,13.47
2018-11-02T06:21:07.910Z,13.27
2018-11-02T06:23:36.840Z,13.27
2018-11-02T06:26:05.315Z,12.70
2018-11-02T06:28:33.805Z,13.23
2018-11-02T06:31:02.946Z,13.83
2018-11-02T06:33:31.367Z,12.00
2018-11-02T06:35:59.394Z,11.80
2018-11-02T06:38:27.938Z,11.40
2018-11-02T06:43:50.132Z,12.53
2018-11-02T06:46:23.386Z,12.30
2018-11-02T06:48:52.855Z,12.43
2018-11-02T06:51:21.625Z,11.37
2018-11-02T06:53:55.804Z,11.43
2018-11-02T06:56:24.330Z,10.67
2018-11-02T06:58:52.605Z,12.53
2018-11-02T07:01:21.663Z,11.93
2018-11-02T07:03:51.432Z,11.00
2018-11-02T07:06:20.703Z,12.10
2018-11-02T07:08:55.286Z,11.80
2018-11-02T07:11:23.771Z,11.83
2018-11-02T07:13:51.688Z,11.63
2018-11-02T07:16:21.119Z,11.65
2018-11-02T07:18:49.736Z,12.33
2018-11-02T07:21:19.280Z,12.67
2018-11-02T07:23:48.055Z,13.70
2018-11-02T07:26:16.308Z,13.57
2018-11-02T07:28:46.416Z,14.10
2018-11-02T07:31:14.706Z,14.30
2018-11-02T07:33:42.733Z,14.57
2018-11-02T07:36:10.824Z,14.87
2018-11-02T07:38:39.068Z,16.00
2018-11-02T07:41:07.442Z,16.40
2018-11-02T07:43:37.675Z,15.97
2018-11-02T07:46:14.974Z,15.83
2018-11-02T07:48:43.585Z,15.40
2018-11-02T07:51:12.692Z,16.67
2018-11-02T07:53:42.142Z,17.20
2018-11-02T07:56:10.899Z,17.23
2018-11-02T07:58:40.042Z,18.10
2018-11-02T08:01:08.898Z,17.80
2018-11-02T08:03:40.019Z,18.53
2018-11-02T08:06:08.375Z,18.97
2018-11-02T08:08:37.629Z,19.13
2018-11-02T08:11:06.064Z,18.27
2018-11-02T08:13:33.839Z,17.07
2018-11-02T08:16:03.063Z,15.50
2018-11-02T08:18:30.762Z,11.00
2018-11-02T08:20:59.151Z,10.37
2018-11-02T08:23:26.987Z,8.97
2018-11-02T08:25:55.238Z,9.97
2018-11-02T08:28:23.250Z,10.07
2018-11-02T08:30:53.244Z,9.60
2018-11-02T08:33:22.300Z,8.30
2018-11-02T08:36:19.131Z,7.40
2018-11-02T09:23:47.945Z,1.10
2018-11-02T09:26:16.139Z,0.90
2018-11-02T09:28:44.035Z,1.00
2018-11-02T09:31:12.424Z,1.00
2018-11-02T09:33:40.793Z,0.70
2018-11-02T09:36:09.224Z,0.80
2018-11-02T09:38:37.851Z,0.90
2018-11-02T09:41:07.570Z,0.80
2018-11-02T09:43:36.230Z,1.00
2018-11-02T09:46:04.444Z,1.17
2018-11-02T09:48:32.464Z,0.97
2018-11-02T09:51:00.519Z,1.20
2018-11-02T09:53:28.565Z,1.10
2018-11-02T09:55:56.308Z,0.80
2018-11-02T09:58:24.581Z,1.17
2018-11-02T10:00:52.977Z,1.10
2018-11-02T10:03:20.584Z,1.40
2018-11-02T10:05:48.920Z,0.80
2018-11-02T10:08:17.513Z,1.17
2018-11-02T10:10:45.379Z,0.90
2018-11-02T10:13:13.260Z,1.03
2018-11-02T10:15:41.382Z,1.10
2018-11-02T10:18:09.509Z,1.30
2018-11-02T10:20:37.581Z,1.17
2018-11-02T10:23:05.460Z,1.40
2018-11-02T10:25:33.814Z,1.27
2018-11-02T10:28:01.691Z,1.37
2018-11-02T10:30:30.457Z,1.40
2018-11-02T10:32:59.699Z,1.40
2018-11-02T10:35:27.740Z,1.27
2018-11-02T10:37:57.230Z,1.40
2018-11-02T10:40:25.497Z,1.03
2018-11-02T10:42:58.568Z,1.80
2018-11-02T10:45:31.523Z,1.20
2018-11-02T10:53:44.816Z,1.37
2018-11-02T10:56:12.921Z,1.50
2018-11-02T10:58:41.335Z,2.00
2018-11-02T11:01:14.970Z,1.57
2018-11-02T11:03:43.689Z,1.33
2018-11-02T11:06:11.409Z,1.67
2018-11-02T11:09:54.844Z,1.60
2018-11-02T11:12:23.330Z,1.37
2018-11-02T11:14:52.210Z,1.50
2018-11-02T11:17:21.601Z,1.37
2018-11-02T11:19:49.642Z,1.37
2018-11-02T11:22:18.465Z,1.43
2018-11-02T11:24:47.284Z,1.37
2018-11-02T11:27:15.868Z,1.60
2018-11-02T11:29:44.541Z,1.30
2018-11-02T11:32:12.506Z,1.37
2018-11-02T11:34:40.738Z,1.43
2018-11-02T11:37:08.798Z,1.40
2018-11-02T11:39:37.130Z,1.70
2018-11-02T11:42:05.178Z,1.37
2018-11-02T11:44:33.402Z,1.23
2018-11-02T11:47:02.043Z,2.20
2018-11-02T11:55:28.792Z,1.60
2018-11-02T11:57:57.132Z,1.23
2018-11-02T12:00:25.237Z,1.80
2018-11-02T12:02:53.273Z,1.60
2018-11-02T12:05:22.461Z,2.20
2018-11-02T12:07:50.415Z,1.97
2018-11-02T12:10:19.992Z,1.83
2018-11-02T12:12:47.817Z,1.23
2018-11-02T12:15:18.881Z,1.77
2018-11-02T12:17:47.181Z,1.57
2018-11-02T12:20:22.598Z,1.83
2018-11-02T12:22:51.794Z,1.53
2018-11-02T12:25:19.574Z,1.87
2018-11-02T12:27:47.738Z,2.00
2018-11-02T12:30:16.748Z,2.00
2018-11-02T12:32:44.785Z,1.80
2018-11-02T12:35:13.803Z,1.70
2018-11-02T12:37:41.907Z,2.00
2018-11-02T12:40:12.907Z,1.70
2018-11-02T12:42:41.305Z,1.70
2018-11-02T12:45:13.394Z,1.47
2018-11-02T12:47:43.109Z,1.30
2018-11-02T12:50:18.090Z,1.40
2018-11-02T12:52:47.872Z,2.00
2018-11-02T12:55:16.457Z,1.60
2018-11-02T12:57:44.472Z,1.30
2018-11-02T13:00:14.802Z,1.40
2018-11-02T13:02:44.701Z,1.70
2018-11-02T13:05:12.539Z,1.70
2018-11-02T13:07:41.394Z,1.43
2018-11-02T13:10:10.537Z,1.73
2018-11-02T13:12:38.359Z,1.30
2018-11-02T13:15:07.676Z,1.60
2018-11-02T13:17:35.540Z,1.43
2018-11-02T13:20:03.580Z,1.50
2018-11-02T13:22:31.544Z,1.70
2018-11-02T13:24:59.371Z,1.70
2018-11-02T13:27:27.351Z,1.70
2018-11-02T13:29:55.310Z,1.77
2018-11-02T13:32:23.253Z,1.77
2018-11-02T13:34:51.290Z,1.90
2018-11-02T13:37:19.324Z,1.20
2018-11-02T13:39:47.203Z,2.03
2018-11-02T13:42:15.469Z,1.47
2018-11-02T13:44:43.406Z,1.53
2018-11-02T13:47:11.375Z,1.23
2018-11-02T13:49:39.569Z,1.67
2018-11-02T13:52:08.912Z,1.50
2018-11-02T13:54:38.238Z,1.77
2018-11-02T13:57:07.406Z,2.00
2018-11-02T13:59:36.106Z,1.53
2018-11-02T14:02:15.680Z,1.67
2018-11-02T14:04:43.654Z,1.97
2018-11-02T14:07:11.585Z,1.40
2018-11-02T14:09:39.586Z,1.60
2018-11-02T14:12:07.356Z,1.43
2018-11-02T14:14:35.225Z,1.63
2018-11-02T14:17:04.357Z,1.73
2018-11-02T14:19:32.954Z,1.63
2018-11-02T14:22:01.758Z,1.50
2018-11-02T14:24:30.402Z,1.47
2018-11-02T14:26:59.524Z,1.53
2018-11-02T14:29:28.250Z,1.37
2018-11-02T14:31:56.184Z,1.90
2018-11-02T14:34:24.271Z,2.00
2018-11-02T14:37:03.932Z,2.55
2018-11-02T14:39:32.115Z,2.60
2018-11-02T14:42:00.589Z,2.07
2018-11-02T16:05:31.340Z,1.97
2018-11-02T16:07:59.361Z,1.50
2018-11-02T16:10:28.266Z,1.83
2018-11-02T16:12:56.090Z,1.50
2018-11-02T16:15:24.910Z,1.30
2018-11-02T16:17:53.593Z,1.47
2018-11-02T16:20:21.724Z,1.83
2018-11-02T16:22:54.885Z,1.30
2018-11-02T16:25:22.793Z,1.53
2018-11-02T16:27:50.681Z,1.93
2018-11-02T16:30:18.679Z,2.30
2018-11-02T16:32:46.552Z,2.10
2018-11-02T16:35:14.525Z,1.70
2018-11-02T16:37:42.348Z,2.10
2018-11-02T16:40:12.113Z,1.97
2018-11-02T16:42:39.861Z,1.87
2018-11-02T16:45:09.181Z,1.87
2018-11-02T16:47:37.131Z,1.73
2018-11-02T16:50:05.317Z,1.70
2018-11-02T16:52:37.062Z,1.73
2018-11-02T16:55:05.463Z,2.00
2018-11-02T16:57:33.597Z,1.50
2018-11-02T17:00:01.485Z,1.60
2018-11-02T17:02:29.353Z,1.60
2018-11-02T17:04:57.268Z,2.00
2018-11-02T17:07:24.957Z,1.93
2018-11-02T17:09:52.850Z,1.37
2018-11-02T17:12:20.617Z,1.70
2018-11-02T17:14:48.525Z,1.77
2018-11-02T17:17:16.566Z,1.73
2018-11-02T17:19:44.412Z,1.70
2018-11-02T17:22:12.359Z,2.47
2018-11-02T17:24:40.178Z,2.00
2018-11-02T17:27:07.929Z,2.50
2018-11-02T17:29:35.685Z,2.53
2018-11-02T17:32:03.720Z,2.97
2018-11-02T17:34:31.394Z,2.80
2018-11-02T17:36:59.853Z,2.30
2018-11-02T17:39:27.793Z,2.10
2018-11-02T17:41:55.538Z,1.97
2018-11-02T17:44:23.294Z,2.30
2018-11-02T17:46:50.901Z,2.10
2018-11-02T17:49:18.845Z,2.10
2018-11-02T17:51:46.629Z,2.40
2018-11-02T17:54:14.813Z,2.30
2018-11-02T17:56:42.806Z,2.13
2018-11-02T17:59:10.563Z,2.07
2018-11-02T18:01:39.033Z,2.03
2018-11-02T18:04:07.047Z,2.10
2018-11-02T18:06:35.724Z,2.10
2018-11-02T18:09:05.380Z,1.97
2018-11-02T18:11:33.275Z,2.53
2018-11-02T18:14:01.217Z,2.13
2018-11-02T18:16:29.024Z,2.73
2018-11-02T18:18:56.872Z,2.10
2018-11-02T18:21:24.469Z,2.10
2018-11-02T18:23:52.283Z,2.27
2018-11-02T18:26:19.965Z,2.17
2018-11-02T18:28:47.877Z,2.30
2018-11-02T18:31:15.565Z,2.00
2018-11-02T19:14:11.050Z,2.73
2018-11-02T19:16:40.248Z,3.87
2018-11-02T19:19:09.562Z,3.10
2018-11-02T19:21:38.845Z,3.47
2018-11-02T19:24:08.801Z,5.10
2018-11-02T19:26:39.473Z,5.10
2018-11-02T19:29:08.600Z,5.10
2018-11-02T19:31:37.689Z,4.73
2018-11-02T19:34:09.118Z,4.07
2018-11-02T19:36:49.569Z,3.90
2018-11-02T19:39:19.436Z,3.77
2018-11-02T19:41:51.052Z,4.00
2018-11-02T19:44:24.164Z,3.63
2018-11-02T19:46:53.348Z,3.73
2018-11-02T19:49:23.678Z,4.40
2018-11-02T19:51:53.230Z,4.37
2018-11-02T19:54:24.758Z,3.93
2018-11-02T19:56:57.027Z,3.83
2018-11-02T19:59:27.545Z,3.97
2018-11-02T20:04:40.864Z,3.90
2018-11-02T20:07:16.235Z,4.27
2018-11-02T20:09:45.226Z,4.23
2018-11-02T20:12:14.306Z,3.87
2018-11-02T20:14:42.972Z,4.70
2018-11-02T20:17:11.293Z,4.23
2018-11-02T20:19:40.326Z,4.07
2018-11-02T20:22:08.739Z,4.00
2018-11-02T20:24:37.208Z,4.23
2018-11-02T20:27:05.957Z,3.63
2018-11-02T20:29:37.033Z,4.70
2018-11-02T20:32:06.230Z,4.20
2018-11-02T21:00:14.173Z,4.00
2018-11-02T21:02:42.867Z,3.00
2018-11-02T21:05:12.738Z,3.50
2018-11-02T21:07:40.646Z,3.70
2018-11-02T21:10:09.857Z,3.63
2018-11-02T21:12:37.488Z,3.70
2018-11-02T21:15:08.206Z,4.00
2018-11-02T21:17:35.798Z,4.20
2018-11-02T21:20:04.253Z,4.40
2018-11-02T21:22:31.782Z,4.50
2018-11-02T21:24:59.370Z,4.47
2018-11-02T21:27:26.914Z,4.33
2018-11-02T21:29:54.665Z,4.07
2018-11-02T21:32:22.241Z,4.00
2018-11-02T21:34:49.946Z,3.90
2018-11-02T21:37:17.587Z,4.40
2018-11-02T21:39:45.328Z,4.00
2018-11-02T21:42:12.968Z,4.70
2018-11-02T21:44:40.573Z,4.27
2018-11-02T21:47:08.235Z,4.70
2018-11-02T21:49:35.994Z,5.60
2018-11-02T21:52:03.934Z,6.07
2018-11-02T21:54:31.663Z,5.17
2018-11-02T21:56:59.377Z,5.23
2018-11-02T21:59:27.064Z,6.10
2018-11-02T22:01:54.793Z,5.97
2018-11-02T22:04:22.474Z,5.70
2018-11-02T22:06:50.237Z,6.03
2018-11-02T22:09:17.809Z,6.50
2018-11-02T22:11:45.402Z,7.17
2018-11-02T22:14:13.059Z,7.67
2018-11-02T22:16:42.891Z,7.60
2018-11-02T22:19:10.685Z,7.53
2018-11-02T22:21:38.433Z,7.93
2018-11-02T22:24:06.958Z,6.90
2018-11-02T22:27:00.277Z,6.73
2018-11-02T22:29:28.225Z,6.83
2018-11-02T22:31:55.892Z,6.87
2018-11-02T22:34:23.574Z,6.63
2018-11-02T22:36:51.449Z,6.73
2018-11-02T22:39:20.175Z,6.57
2018-11-02T22:41:47.763Z,7.60
2018-11-02T22:44:15.429Z,7.33
2018-11-02T22:46:43.022Z,7.20
2018-11-02T22:49:10.583Z,8.30
2018-11-02T22:51:38.337Z,7.43
2018-11-02T22:54:05.997Z,7.33
2018-11-02T22:56:33.610Z,7.50
2018-11-02T22:59:02.014Z,7.80
2018-11-02T23:01:30.104Z,7.73
2018-11-02T23:03:59.699Z,7.90
2018-11-02T23:06:27.684Z,7.97
2018-11-02T23:08:55.432Z,7.87
2018-11-02T23:11:23.474Z,7.63
2018-11-02T23:13:50.935Z,7.40
2018-11-02T23:16:18.531Z,7.23
2018-11-02T23:18:45.975Z,7.37
2018-11-02T23:21:13.530Z,7.50
2018-11-02T23:23:41.000Z,6.97
2018-11-02T23:26:08.460Z,7.27
2018-11-02T23:28:37.428Z,7.60
2018-11-02T23:31:06.005Z,8.07
2018-11-02T23:33:33.578Z,8.57
2018-11-02T23:36:01.163Z,8.17
2018-11-02T23:38:28.665Z,8.33
2018-11-02T23:40:56.388Z,7.97
2018-11-02T23:43:23.969Z,8.30
2018-11-02T23:45:51.505Z,8.27
2018-11-02T23:48:19.516Z,8.53
2018-11-02T23:50:48.481Z,8.43
2018-11-02T23:53:16.207Z,8.50
2018-11-02T23:55:44.176Z,7.40
2018-11-02T23:58:11.917Z,8.33
